sensor_id;sensor_type;location;lat;lon;timestamp;temperature;humidity
51950;DHT22;37974;53.218;6.640;2023-07-31T00:02:14;16.30;99.90
51950;DHT22;37974;53.218;6.640;2023-07-31T00:04:40;16.30;99.90
51950;DHT22;37974;53.218;6.640;2023-07-31T00:07:06;16.30;99.90
51950;DHT22;37974;53.218;6.640;2023-07-31T00:09:35;16.30;99.90
51950;DHT22;37974;53.218;6.640;2023-07-31T00:12:00;16.20;99.90
51950;DHT22;37974;53.218;6.640;2023-07-31T00:14:26;16.30;99.90
51950;DHT22;37974;53.218;6.640;2023-07-31T00:16:52;16.20;99.90
51950;DHT22;37974;53.218;6.640;2023-07-31T00:19:17;16.20;99.90
51950;DHT22;37974;53.218;6.640;2023-07-31T00:21:44;16.20;99.90
51950;DHT22;37974;53.218;6.640;2023-07-31T00:24:10;16.20;99.90
51950;DHT22;37974;53.218;6.640;2023-07-31T00:26:36;16.20;99.90
51950;DHT22;37974;53.218;6.640;2023-07-31T00:29:01;16.10;99.90
51950;DHT22;37974;53.218;6.640;2023-07-31T00:31:27;16.10;99.90
51950;DHT22;37974;53.218;6.640;2023-07-31T00:33:53;16.00;99.90
51950;DHT22;37974;53.218;6.640;2023-07-31T00:36:18;16.00;99.90
51950;DHT22;37974;53.218;6.640;2023-07-31T00:38:44;16.00;99.90
51950;DHT22;37974;53.218;6.640;2023-07-31T00:41:10;15.90;99.90
51950;DHT22;37974;53.218;6.640;2023-07-31T00:43:35;16.00;99.90
51950;DHT22;37974;53.218;6.640;2023-07-31T00:46:01;15.90;99.90
51950;DHT22;37974;53.218;6.640;2023-07-31T00:48:27;15.90;99.90
51950;DHT22;37974;53.218;6.640;2023-07-31T00:50:53;15.80;99.90
51950;DHT22;37974;53.218;6.640;2023-07-31T00:53:19;15.90;99.90
51950;DHT22;37974;53.218;6.640;2023-07-31T00:55:45;15.80;99.90
51950;DHT22;37974;53.218;6.640;2023-07-31T00:58:11;15.80;99.90
51950;DHT22;37974;53.218;6.640;2023-07-31T01:00:36;15.80;99.90
51950;DHT22;37974;53.218;6.640;2023-07-31T01:03:02;15.80;99.90
51950;DHT22;37974;53.218;6.640;2023-07-31T01:11:30;15.70;99.90
51950;DHT22;37974;53.218;6.640;2023-07-31T01:13:57;15.70;99.90
51950;DHT22;37974;53.218;6.640;2023-07-31T01:16:24;15.70;99.90
51950;DHT22;37974;53.218;6.640;2023-07-31T01:18:50;15.70;99.90
51950;DHT22;37974;53.218;6.640;2023-07-31T01:24:41;15.60;99.90
51950;DHT22;37974;53.218;6.640;2023-07-31T01:27:09;15.60;99.90
51950;DHT22;37974;53.218;6.640;2023-07-31T01:29:45;15.60;99.90
51950;DHT22;37974;53.218;6.640;2023-07-31T01:32:13;15.60;99.90
51950;DHT22;37974;53.218;6.640;2023-07-31T01:34:41;15.60;99.90
51950;DHT22;37974;53.218;6.640;2023-07-31T01:37:07;15.60;99.90
51950;DHT22;37974;53.218;6.640;2023-07-31T01:39:33;15.70;99.90
51950;DHT22;37974;53.218;6.640;2023-07-31T01:41:58;15.70;99.90
51950;DHT22;37974;53.218;6.640;2023-07-31T01:44:24;15.60;99.90
51950;DHT22;37974;53.218;6.640;2023-07-31T01:46:49;15.70;99.90
51950;DHT22;37974;53.218;6.640;2023-07-31T01:49:15;15.70;99.90
51950;DHT22;37974;53.218;6.640;2023-07-31T01:51:41;15.70;99.90
51950;DHT22;37974;53.218;6.640;2023-07-31T01:54:07;15.70;99.90
51950;DHT22;37974;53.218;6.640;2023-07-31T01:56:32;15.70;99.90
51950;DHT22;37974;53.218;6.640;2023-07-31T01:58:58;15.70;99.90
51950;DHT22;37974;53.218;6.640;2023-07-31T02:01:24;15.70;99.90
51950;DHT22;37974;53.218;6.640;2023-07-31T02:03:49;15.70;99.90
51950;DHT22;37974;53.218;6.640;2023-07-31T02:06:15;15.60;99.90
51950;DHT22;37974;53.218;6.640;2023-07-31T02:08:41;15.60;99.90
51950;DHT22;37974;53.218;6.640;2023-07-31T02:11:06;15.60;99.90
51950;DHT22;37974;53.218;6.640;2023-07-31T02:13:32;15.70;99.90
51950;DHT22;37974;53.218;6.640;2023-07-31T02:15:58;15.70;99.90
51950;DHT22;37974;53.218;6.640;2023-07-31T02:18:23;15.60;99.90
51950;DHT22;37974;53.218;6.640;2023-07-31T02:20:52;15.60;99.90
51950;DHT22;37974;53.218;6.640;2023-07-31T02:23:19;15.60;99.90
51950;DHT22;37974;53.218;6.640;2023-07-31T02:25:45;15.60;99.90
51950;DHT22;37974;53.218;6.640;2023-07-31T02:28:11;15.60;99.90
51950;DHT22;37974;53.218;6.640;2023-07-31T02:30:37;15.60;99.90
51950;DHT22;37974;53.218;6.640;2023-07-31T02:33:04;15.60;99.90
51950;DHT22;37974;53.218;6.640;2023-07-31T02:35:30;15.60;99.90
51950;DHT22;37974;53.218;6.640;2023-07-31T02:37:56;15.60;99.90
51950;DHT22;37974;53.218;6.640;2023-07-31T02:40:21;15.50;99.90
51950;DHT22;37974;53.218;6.640;2023-07-31T02:42:47;15.60;99.90
51950;DHT22;37974;53.218;6.640;2023-07-31T02:45:13;15.60;99.90
51950;DHT22;37974;53.218;6.640;2023-07-31T02:47:39;15.50;99.90
51950;DHT22;37974;53.218;6.640;2023-07-31T02:50:05;15.50;99.90
51950;DHT22;37974;53.218;6.640;2023-07-31T02:52:31;15.60;99.90
51950;DHT22;37974;53.218;6.640;2023-07-31T02:54:57;15.60;99.90
51950;DHT22;37974;53.218;6.640;2023-07-31T02:57:23;15.50;99.90
51950;DHT22;37974;53.218;6.640;2023-07-31T02:59:48;15.50;99.90
51950;DHT22;37974;53.218;6.640;2023-07-31T03:02:14;15.50;99.90
51950;DHT22;37974;53.218;6.640;2023-07-31T03:04:40;15.50;99.90
51950;DHT22;37974;53.218;6.640;2023-07-31T03:07:06;15.50;99.90
51950;DHT22;37974;53.218;6.640;2023-07-31T03:09:31;15.50;99.90
51950;DHT22;37974;53.218;6.640;2023-07-31T03:11:57;15.50;99.90
51950;DHT22;37974;53.218;6.640;2023-07-31T03:14:23;15.50;99.90
51950;DHT22;37974;53.218;6.640;2023-07-31T03:16:49;15.50;99.90
51950;DHT22;37974;53.218;6.640;2023-07-31T03:19:14;15.50;99.90
51950;DHT22;37974;53.218;6.640;2023-07-31T03:21:40;15.50;99.90
51950;DHT22;37974;53.218;6.640;2023-07-31T03:24:06;15.50;99.90
51950;DHT22;37974;53.218;6.640;2023-07-31T03:26:32;15.40;99.90
51950;DHT22;37974;53.218;6.640;2023-07-31T03:28:58;15.40;99.90
51950;DHT22;37974;53.218;6.640;2023-07-31T03:31:24;15.40;99.90
51950;DHT22;37974;53.218;6.640;2023-07-31T03:33:49;15.40;99.90
51950;DHT22;37974;53.218;6.640;2023-07-31T03:36:15;15.40;99.90
51950;DHT22;37974;53.218;6.640;2023-07-31T03:38:41;15.40;99.90
51950;DHT22;37974;53.218;6.640;2023-07-31T03:41:06;15.40;99.90
51950;DHT22;37974;53.218;6.640;2023-07-31T03:43:32;15.30;99.90
51950;DHT22;37974;53.218;6.640;2023-07-31T03:46:01;15.40;99.90
51950;DHT22;37974;53.218;6.640;2023-07-31T03:48:28;15.30;99.90
51950;DHT22;37974;53.218;6.640;2023-07-31T03:50:54;15.30;99.90
51950;DHT22;37974;53.218;6.640;2023-07-31T03:53:19;15.30;99.90
51950;DHT22;37974;53.218;6.640;2023-07-31T03:55:45;15.30;99.90
51950;DHT22;37974;53.218;6.640;2023-07-31T03:58:11;15.30;99.90
51950;DHT22;37974;53.218;6.640;2023-07-31T04:00:36;15.30;99.90
51950;DHT22;37974;53.218;6.640;2023-07-31T04:03:02;15.40;99.90
51950;DHT22;37974;53.218;6.640;2023-07-31T04:05:31;15.40;99.90
51950;DHT22;37974;53.218;6.640;2023-07-31T04:07:57;15.40;99.90
51950;DHT22;37974;53.218;6.640;2023-07-31T04:10:23;15.40;99.90
51950;DHT22;37974;53.218;6.640;2023-07-31T04:12:49;15.40;99.90
51950;DHT22;37974;53.218;6.640;2023-07-31T04:15:14;15.40;99.90
51950;DHT22;37974;53.218;6.640;2023-07-31T04:17:40;15.40;99.90
51950;DHT22;37974;53.218;6.640;2023-07-31T04:20:06;15.40;99.90
51950;DHT22;37974;53.218;6.640;2023-07-31T04:22:32;15.40;99.90
51950;DHT22;37974;53.218;6.640;2023-07-31T04:24:58;15.50;99.90
51950;DHT22;37974;53.218;6.640;2023-07-31T04:27:24;15.40;99.90
51950;DHT22;37974;53.218;6.640;2023-07-31T04:29:50;15.50;99.90
51950;DHT22;37974;53.218;6.640;2023-07-31T04:32:16;15.50;99.90
51950;DHT22;37974;53.218;6.640;2023-07-31T04:34:42;15.50;99.90
51950;DHT22;37974;53.218;6.640;2023-07-31T04:37:08;15.40;99.90
51950;DHT22;37974;53.218;6.640;2023-07-31T04:39:34;15.50;99.90
51950;DHT22;37974;53.218;6.640;2023-07-31T04:41:59;15.50;99.90
51950;DHT22;37974;53.218;6.640;2023-07-31T04:44:25;15.50;99.90
51950;DHT22;37974;53.218;6.640;2023-07-31T04:46:51;15.50;99.90
51950;DHT22;37974;53.218;6.640;2023-07-31T04:49:16;15.50;99.90
51950;DHT22;37974;53.218;6.640;2023-07-31T04:51:42;15.50;99.90
51950;DHT22;37974;53.218;6.640;2023-07-31T04:54:08;15.50;99.90
51950;DHT22;37974;53.218;6.640;2023-07-31T04:56:33;15.60;99.90
51950;DHT22;37974;53.218;6.640;2023-07-31T04:58:59;15.60;99.90
51950;DHT22;37974;53.218;6.640;2023-07-31T05:01:25;15.60;99.90
51950;DHT22;37974;53.218;6.640;2023-07-31T05:03:51;15.60;99.90
51950;DHT22;37974;53.218;6.640;2023-07-31T05:06:17;15.60;99.90
51950;DHT22;37974;53.218;6.640;2023-07-31T05:08:42;15.60;99.90
51950;DHT22;37974;53.218;6.640;2023-07-31T05:11:08;15.70;99.90
51950;DHT22;37974;53.218;6.640;2023-07-31T05:13:34;15.70;99.90
51950;DHT22;37974;53.218;6.640;2023-07-31T05:15:59;15.70;99.90
51950;DHT22;37974;53.218;6.640;2023-07-31T05:18:25;15.70;99.90
51950;DHT22;37974;53.218;6.640;2023-07-31T05:20:51;15.70;99.90
51950;DHT22;37974;53.218;6.640;2023-07-31T05:23:16;15.70;99.90
51950;DHT22;37974;53.218;6.640;2023-07-31T05:25:42;15.70;99.90
51950;DHT22;37974;53.218;6.640;2023-07-31T05:28:08;15.70;99.90
51950;DHT22;37974;53.218;6.640;2023-07-31T05:30:33;15.70;99.90
51950;DHT22;37974;53.218;6.640;2023-07-31T05:32:59;15.70;99.90
51950;DHT22;37974;53.218;6.640;2023-07-31T05:35:25;15.70;99.90
51950;DHT22;37974;53.218;6.640;2023-07-31T05:37:50;15.70;99.90
51950;DHT22;37974;53.218;6.640;2023-07-31T05:40:16;15.70;99.90
51950;DHT22;37974;53.218;6.640;2023-07-31T05:42:42;15.70;99.90
51950;DHT22;37974;53.218;6.640;2023-07-31T05:45:08;15.80;99.90
51950;DHT22;37974;53.218;6.640;2023-07-31T05:47:34;15.80;99.90
51950;DHT22;37974;53.218;6.640;2023-07-31T05:49:59;15.80;99.90
51950;DHT22;37974;53.218;6.640;2023-07-31T05:52:25;15.80;99.90
51950;DHT22;37974;53.218;6.640;2023-07-31T05:54:51;15.80;99.90
51950;DHT22;37974;53.218;6.640;2023-07-31T05:57:17;15.80;99.90
51950;DHT22;37974;53.218;6.640;2023-07-31T05:59:42;15.80;99.90
51950;DHT22;37974;53.218;6.640;2023-07-31T06:02:08;15.80;99.90
51950;DHT22;37974;53.218;6.640;2023-07-31T06:04:34;15.90;99.90
51950;DHT22;37974;53.218;6.640;2023-07-31T06:07:00;15.90;99.90
51950;DHT22;37974;53.218;6.640;2023-07-31T06:09:26;15.90;99.90
51950;DHT22;37974;53.218;6.640;2023-07-31T06:11:52;16.00;99.90
51950;DHT22;37974;53.218;6.640;2023-07-31T06:14:18;16.00;99.90
51950;DHT22;37974;53.218;6.640;2023-07-31T06:16:44;16.10;99.90
51950;DHT22;37974;53.218;6.640;2023-07-31T06:19:10;16.10;99.90
51950;DHT22;37974;53.218;6.640;2023-07-31T06:21:36;16.10;99.90
51950;DHT22;37974;53.218;6.640;2023-07-31T06:24:07;16.10;99.90
51950;DHT22;37974;53.218;6.640;2023-07-31T06:26:33;16.10;99.90
51950;DHT22;37974;53.218;6.640;2023-07-31T06:28:59;16.20;99.90
51950;DHT22;37974;53.218;6.640;2023-07-31T06:31:24;16.20;99.90
51950;DHT22;37974;53.218;6.640;2023-07-31T06:33:51;16.20;99.90
51950;DHT22;37974;53.218;6.640;2023-07-31T06:36:17;16.20;99.90
51950;DHT22;37974;53.218;6.640;2023-07-31T06:38:43;16.30;99.90
51950;DHT22;37974;53.218;6.640;2023-07-31T06:41:09;16.40;99.90
51950;DHT22;37974;53.218;6.640;2023-07-31T06:43:36;16.40;99.90
51950;DHT22;37974;53.218;6.640;2023-07-31T06:46:08;16.40;99.90
51950;DHT22;37974;53.218;6.640;2023-07-31T06:48:38;16.50;99.90
51950;DHT22;37974;53.218;6.640;2023-07-31T06:51:04;16.60;99.90
51950;DHT22;37974;53.218;6.640;2023-07-31T06:53:29;16.60;99.90
51950;DHT22;37974;53.218;6.640;2023-07-31T06:55:55;16.70;99.90
51950;DHT22;37974;53.218;6.640;2023-07-31T06:58:21;16.90;99.90
51950;DHT22;37974;53.218;6.640;2023-07-31T07:00:47;17.10;99.90
51950;DHT22;37974;53.218;6.640;2023-07-31T07:03:14;17.20;99.90
51950;DHT22;37974;53.218;6.640;2023-07-31T07:05:40;17.30;99.90
51950;DHT22;37974;53.218;6.640;2023-07-31T07:08:06;17.40;99.90
51950;DHT22;37974;53.218;6.640;2023-07-31T07:10:33;17.50;99.90
51950;DHT22;37974;53.218;6.640;2023-07-31T07:12:59;17.60;99.90
51950;DHT22;37974;53.218;6.640;2023-07-31T07:15:25;17.60;99.90
51950;DHT22;37974;53.218;6.640;2023-07-31T07:17:50;17.50;99.90
51950;DHT22;37974;53.218;6.640;2023-07-31T07:20:16;17.50;99.90
51950;DHT22;37974;53.218;6.640;2023-07-31T07:22:42;17.60;99.90
51950;DHT22;37974;53.218;6.640;2023-07-31T07:25:10;17.60;99.90
51950;DHT22;37974;53.218;6.640;2023-07-31T07:27:36;17.50;99.90
51950;DHT22;37974;53.218;6.640;2023-07-31T07:30:02;17.50;99.90
51950;DHT22;37974;53.218;6.640;2023-07-31T07:32:28;17.50;99.90
51950;DHT22;37974;53.218;6.640;2023-07-31T07:34:55;17.40;99.90
51950;DHT22;37974;53.218;6.640;2023-07-31T07:37:21;17.50;99.90
51950;DHT22;37974;53.218;6.640;2023-07-31T07:39:47;17.40;99.90
51950;DHT22;37974;53.218;6.640;2023-07-31T07:42:12;17.30;99.90
51950;DHT22;37974;53.218;6.640;2023-07-31T07:44:38;17.30;99.90
51950;DHT22;37974;53.218;6.640;2023-07-31T07:47:04;17.20;99.90
51950;DHT22;37974;53.218;6.640;2023-07-31T07:49:35;17.20;99.90
51950;DHT22;37974;53.218;6.640;2023-07-31T07:52:02;17.10;99.90
51950;DHT22;37974;53.218;6.640;2023-07-31T07:54:28;17.10;99.90
51950;DHT22;37974;53.218;6.640;2023-07-31T07:56:53;17.10;99.90
51950;DHT22;37974;53.218;6.640;2023-07-31T07:59:19;17.10;99.90
51950;DHT22;37974;53.218;6.640;2023-07-31T08:01:45;17.10;99.90
51950;DHT22;37974;53.218;6.640;2023-07-31T08:04:11;17.10;99.90
51950;DHT22;37974;53.218;6.640;2023-07-31T08:06:37;17.20;99.90
51950;DHT22;37974;53.218;6.640;2023-07-31T08:09:02;17.20;99.90
51950;DHT22;37974;53.218;6.640;2023-07-31T08:11:35;17.20;99.90
51950;DHT22;37974;53.218;6.640;2023-07-31T08:14:01;17.20;99.90
51950;DHT22;37974;53.218;6.640;2023-07-31T08:16:26;17.30;99.90
51950;DHT22;37974;53.218;6.640;2023-07-31T08:18:52;17.30;99.90
51950;DHT22;37974;53.218;6.640;2023-07-31T08:21:18;17.30;99.90
51950;DHT22;37974;53.218;6.640;2023-07-31T08:23:43;17.40;99.90
51950;DHT22;37974;53.218;6.640;2023-07-31T08:26:18;17.40;99.90
51950;DHT22;37974;53.218;6.640;2023-07-31T08:28:44;17.50;99.90
51950;DHT22;37974;53.218;6.640;2023-07-31T08:31:09;17.60;99.90
51950;DHT22;37974;53.218;6.640;2023-07-31T08:33:36;17.70;99.90
51950;DHT22;37974;53.218;6.640;2023-07-31T08:36:02;17.80;99.90
51950;DHT22;37974;53.218;6.640;2023-07-31T08:38:28;17.90;99.90
51950;DHT22;37974;53.218;6.640;2023-07-31T08:40:56;18.00;99.90
51950;DHT22;37974;53.218;6.640;2023-07-31T08:43:25;18.10;99.90
51950;DHT22;37974;53.218;6.640;2023-07-31T08:45:50;18.10;99.90
51950;DHT22;37974;53.218;6.640;2023-07-31T08:48:17;18.10;99.90
51950;DHT22;37974;53.218;6.640;2023-07-31T08:50:43;18.20;99.90
51950;DHT22;37974;53.218;6.640;2023-07-31T08:53:09;18.20;99.90
51950;DHT22;37974;53.218;6.640;2023-07-31T08:55:36;18.30;99.90
51950;DHT22;37974;53.218;6.640;2023-07-31T08:58:04;18.30;99.90
51950;DHT22;37974;53.218;6.640;2023-07-31T09:00:32;18.30;99.90
51950;DHT22;37974;53.218;6.640;2023-07-31T09:03:01;18.30;99.90
51950;DHT22;37974;53.218;6.640;2023-07-31T09:05:29;18.30;99.90
51950;DHT22;37974;53.218;6.640;2023-07-31T09:07:56;18.30;99.90
51950;DHT22;37974;53.218;6.640;2023-07-31T09:10:22;18.30;99.90
51950;DHT22;37974;53.218;6.640;2023-07-31T09:12:49;18.40;99.90
51950;DHT22;37974;53.218;6.640;2023-07-31T09:15:16;18.50;99.90
51950;DHT22;37974;53.218;6.640;2023-07-31T09:17:42;18.50;99.90
51950;DHT22;37974;53.218;6.640;2023-07-31T09:20:21;18.50;99.90
51950;DHT22;37974;53.218;6.640;2023-07-31T09:22:48;18.50;99.90
51950;DHT22;37974;53.218;6.640;2023-07-31T09:27:58;18.50;99.90
51950;DHT22;37974;53.218;6.640;2023-07-31T09:30:24;18.60;99.90
51950;DHT22;37974;53.218;6.640;2023-07-31T09:32:51;18.60;99.90
51950;DHT22;37974;53.218;6.640;2023-07-31T09:35:28;18.60;99.90
51950;DHT22;37974;53.218;6.640;2023-07-31T09:37:59;18.60;99.90
51950;DHT22;37974;53.218;6.640;2023-07-31T09:40:30;18.60;99.90
51950;DHT22;37974;53.218;6.640;2023-07-31T09:43:01;18.60;99.90
51950;DHT22;37974;53.218;6.640;2023-07-31T09:45:28;18.60;99.90
51950;DHT22;37974;53.218;6.640;2023-07-31T09:47:54;18.60;99.90
51950;DHT22;37974;53.218;6.640;2023-07-31T09:50:22;18.60;99.90
51950;DHT22;37974;53.218;6.640;2023-07-31T09:52:49;18.60;99.90
51950;DHT22;37974;53.218;6.640;2023-07-31T09:55:15;18.70;99.90
51950;DHT22;37974;53.218;6.640;2023-07-31T09:57:43;18.70;99.90
51950;DHT22;37974;53.218;6.640;2023-07-31T10:00:10;18.80;99.90
51950;DHT22;37974;53.218;6.640;2023-07-31T10:02:37;18.70;99.90
51950;DHT22;37974;53.218;6.640;2023-07-31T10:05:04;18.70;99.90
51950;DHT22;37974;53.218;6.640;2023-07-31T10:07:31;18.70;99.90
51950;DHT22;37974;53.218;6.640;2023-07-31T10:09:59;18.70;99.90
51950;DHT22;37974;53.218;6.640;2023-07-31T10:12:26;18.60;99.90
51950;DHT22;37974;53.218;6.640;2023-07-31T10:14:56;18.60;99.90
51950;DHT22;37974;53.218;6.640;2023-07-31T10:17:23;18.50;99.90
51950;DHT22;37974;53.218;6.640;2023-07-31T10:19:49;18.50;99.90
51950;DHT22;37974;53.218;6.640;2023-07-31T10:22:15;18.50;99.90
51950;DHT22;37974;53.218;6.640;2023-07-31T10:24:48;18.50;99.90
51950;DHT22;37974;53.218;6.640;2023-07-31T10:27:15;18.50;99.90
51950;DHT22;37974;53.218;6.640;2023-07-31T10:29:43;18.50;99.90
51950;DHT22;37974;53.218;6.640;2023-07-31T10:32:13;18.50;99.90
51950;DHT22;37974;53.218;6.640;2023-07-31T10:34:40;18.60;99.90
51950;DHT22;37974;53.218;6.640;2023-07-31T10:37:30;18.70;99.90
51950;DHT22;37974;53.218;6.640;2023-07-31T10:40:05;18.60;99.90
51950;DHT22;37974;53.218;6.640;2023-07-31T10:42:35;18.70;99.90
51950;DHT22;37974;53.218;6.640;2023-07-31T10:45:04;18.80;99.90
51950;DHT22;37974;53.218;6.640;2023-07-31T10:47:29;18.80;99.90
51950;DHT22;37974;53.218;6.640;2023-07-31T10:50:16;18.90;99.90
51950;DHT22;37974;53.218;6.640;2023-07-31T10:52:46;19.00;99.90
51950;DHT22;37974;53.218;6.640;2023-07-31T10:58:12;19.10;99.90
51950;DHT22;37974;53.218;6.640;2023-07-31T11:00:44;19.20;99.90
51950;DHT22;37974;53.218;6.640;2023-07-31T11:03:14;19.10;99.90
51950;DHT22;37974;53.218;6.640;2023-07-31T11:05:42;19.20;99.90
51950;DHT22;37974;53.218;6.640;2023-07-31T11:08:12;19.20;99.90
51950;DHT22;37974;53.218;6.640;2023-07-31T11:10:38;19.30;99.90
51950;DHT22;37974;53.218;6.640;2023-07-31T11:13:04;19.40;99.90
51950;DHT22;37974;53.218;6.640;2023-07-31T11:15:31;19.40;99.90
51950;DHT22;37974;53.218;6.640;2023-07-31T11:17:57;19.40;99.90
51950;DHT22;37974;53.218;6.640;2023-07-31T11:20:25;19.40;99.90
51950;DHT22;37974;53.218;6.640;2023-07-31T11:22:52;19.50;99.90
51950;DHT22;37974;53.218;6.640;2023-07-31T11:25:18;19.60;99.90
51950;DHT22;37974;53.218;6.640;2023-07-31T11:27:44;19.70;99.90
51950;DHT22;37974;53.218;6.640;2023-07-31T11:30:10;19.80;99.90
51950;DHT22;37974;53.218;6.640;2023-07-31T11:32:37;20.10;99.90
51950;DHT22;37974;53.218;6.640;2023-07-31T11:35:03;20.10;99.90
51950;DHT22;37974;53.218;6.640;2023-07-31T11:37:43;20.20;99.90
51950;DHT22;37974;53.218;6.640;2023-07-31T11:40:10;20.10;99.90
51950;DHT22;37974;53.218;6.640;2023-07-31T11:42:36;19.90;99.90
51950;DHT22;37974;53.218;6.640;2023-07-31T11:45:06;19.90;99.90
51950;DHT22;37974;53.218;6.640;2023-07-31T11:47:33;19.70;99.90
51950;DHT22;37974;53.218;6.640;2023-07-31T11:50:02;19.60;99.90
51950;DHT22;37974;53.218;6.640;2023-07-31T11:52:36;19.40;99.90
51950;DHT22;37974;53.218;6.640;2023-07-31T11:55:04;19.40;99.90
51950;DHT22;37974;53.218;6.640;2023-07-31T11:57:30;19.30;99.90
51950;DHT22;37974;53.218;6.640;2023-07-31T11:59:56;19.30;99.90
51950;DHT22;37974;53.218;6.640;2023-07-31T12:02:23;19.40;99.90
51950;DHT22;37974;53.218;6.640;2023-07-31T12:04:49;19.40;99.90
51950;DHT22;37974;53.218;6.640;2023-07-31T12:07:15;19.40;99.90
51950;DHT22;37974;53.218;6.640;2023-07-31T12:09:56;19.50;99.90
51950;DHT22;37974;53.218;6.640;2023-07-31T12:12:24;19.50;99.90
51950;DHT22;37974;53.218;6.640;2023-07-31T12:14:50;19.70;99.90
51950;DHT22;37974;53.218;6.640;2023-07-31T12:17:17;19.80;99.90
51950;DHT22;37974;53.218;6.640;2023-07-31T12:19:44;19.90;99.90
51950;DHT22;37974;53.218;6.640;2023-07-31T12:22:16;20.00;99.90
51950;DHT22;37974;53.218;6.640;2023-07-31T12:24:43;20.10;99.90
51950;DHT22;37974;53.218;6.640;2023-07-31T12:27:14;20.20;99.90
51950;DHT22;37974;53.218;6.640;2023-07-31T12:29:42;20.30;99.90
51950;DHT22;37974;53.218;6.640;2023-07-31T12:32:25;20.30;99.90
51950;DHT22;37974;53.218;6.640;2023-07-31T12:34:54;20.20;99.90
51950;DHT22;37974;53.218;6.640;2023-07-31T12:37:21;20.20;99.90
51950;DHT22;37974;53.218;6.640;2023-07-31T12:39:47;20.20;99.90
51950;DHT22;37974;53.218;6.640;2023-07-31T12:42:13;20.10;99.90
51950;DHT22;37974;53.218;6.640;2023-07-31T12:44:38;20.10;99.90
51950;DHT22;37974;53.218;6.640;2023-07-31T12:47:04;20.20;99.90
51950;DHT22;37974;53.218;6.640;2023-07-31T12:49:30;20.30;99.90
51950;DHT22;37974;53.218;6.640;2023-07-31T12:51:56;20.30;99.90
51950;DHT22;37974;53.218;6.640;2023-07-31T12:54:21;20.40;99.90
51950;DHT22;37974;53.218;6.640;2023-07-31T12:56:47;20.40;99.90
51950;DHT22;37974;53.218;6.640;2023-07-31T12:59:13;20.40;99.90
51950;DHT22;37974;53.218;6.640;2023-07-31T13:01:39;20.40;99.90
51950;DHT22;37974;53.218;6.640;2023-07-31T13:04:05;20.40;99.90
51950;DHT22;37974;53.218;6.640;2023-07-31T13:06:31;20.40;99.90
51950;DHT22;37974;53.218;6.640;2023-07-31T13:08:56;20.40;99.90
51950;DHT22;37974;53.218;6.640;2023-07-31T13:11:22;20.30;99.90
51950;DHT22;37974;53.218;6.640;2023-07-31T13:13:48;20.20;99.90
51950;DHT22;37974;53.218;6.640;2023-07-31T13:16:13;20.10;99.90
51950;DHT22;37974;53.218;6.640;2023-07-31T13:18:39;20.10;99.90
51950;DHT22;37974;53.218;6.640;2023-07-31T13:21:04;20.00;99.90
51950;DHT22;37974;53.218;6.640;2023-07-31T13:23:30;20.00;99.90
51950;DHT22;37974;53.218;6.640;2023-07-31T13:25:56;20.10;99.90
51950;DHT22;37974;53.218;6.640;2023-07-31T13:28:22;20.10;99.90
51950;DHT22;37974;53.218;6.640;2023-07-31T13:30:47;20.20;99.90
51950;DHT22;37974;53.218;6.640;2023-07-31T13:33:13;20.20;99.90
51950;DHT22;37974;53.218;6.640;2023-07-31T13:35:39;20.30;99.90
51950;DHT22;37974;53.218;6.640;2023-07-31T13:38:05;20.30;99.90
51950;DHT22;37974;53.218;6.640;2023-07-31T13:40:31;20.30;99.90
51950;DHT22;37974;53.218;6.640;2023-07-31T13:42:56;20.30;99.90
51950;DHT22;37974;53.218;6.640;2023-07-31T13:45:22;20.20;99.90
51950;DHT22;37974;53.218;6.640;2023-07-31T13:47:50;20.30;99.90
51950;DHT22;37974;53.218;6.640;2023-07-31T13:50:15;20.30;99.90
51950;DHT22;37974;53.218;6.640;2023-07-31T13:52:42;20.40;99.90
51950;DHT22;37974;53.218;6.640;2023-07-31T13:55:08;20.60;99.90
51950;DHT22;37974;53.218;6.640;2023-07-31T13:57:33;20.70;99.90
51950;DHT22;37974;53.218;6.640;2023-07-31T14:00:00;20.80;99.90
51950;DHT22;37974;53.218;6.640;2023-07-31T14:02:25;20.90;99.90
51950;DHT22;37974;53.218;6.640;2023-07-31T14:04:51;21.10;99.90
51950;DHT22;37974;53.218;6.640;2023-07-31T14:07:17;21.30;99.90
51950;DHT22;37974;53.218;6.640;2023-07-31T14:09:43;21.40;99.90
51950;DHT22;37974;53.218;6.640;2023-07-31T14:12:09;21.60;99.90
51950;DHT22;37974;53.218;6.640;2023-07-31T14:14:34;21.70;99.90
51950;DHT22;37974;53.218;6.640;2023-07-31T14:17:00;21.60;99.90
51950;DHT22;37974;53.218;6.640;2023-07-31T14:19:26;21.50;99.90
51950;DHT22;37974;53.218;6.640;2023-07-31T14:21:52;21.30;99.90
51950;DHT22;37974;53.218;6.640;2023-07-31T14:24:17;21.20;99.90
51950;DHT22;37974;53.218;6.640;2023-07-31T14:26:43;20.90;99.90
51950;DHT22;37974;53.218;6.640;2023-07-31T14:29:09;20.80;99.90
51950;DHT22;37974;53.218;6.640;2023-07-31T14:31:35;20.70;99.90
51950;DHT22;37974;53.218;6.640;2023-07-31T14:34:01;20.60;99.90
51950;DHT22;37974;53.218;6.640;2023-07-31T14:36:26;20.50;99.90
51950;DHT22;37974;53.218;6.640;2023-07-31T14:39:01;20.50;99.90
51950;DHT22;37974;53.218;6.640;2023-07-31T14:41:27;20.70;99.90
51950;DHT22;37974;53.218;6.640;2023-07-31T14:43:53;20.70;99.90
51950;DHT22;37974;53.218;6.640;2023-07-31T14:46:20;20.80;99.90
51950;DHT22;37974;53.218;6.640;2023-07-31T14:49:03;20.80;99.90
51950;DHT22;37974;53.218;6.640;2023-07-31T14:51:41;20.70;99.90
51950;DHT22;37974;53.218;6.640;2023-07-31T14:54:09;20.70;99.90
51950;DHT22;37974;53.218;6.640;2023-07-31T14:56:35;20.60;99.90
51950;DHT22;37974;53.218;6.640;2023-07-31T14:59:01;20.60;99.90
51950;DHT22;37974;53.218;6.640;2023-07-31T15:01:28;20.50;99.90
51950;DHT22;37974;53.218;6.640;2023-07-31T15:03:53;20.50;99.90
51950;DHT22;37974;53.218;6.640;2023-07-31T15:06:19;20.50;99.90
51950;DHT22;37974;53.218;6.640;2023-07-31T15:08:45;20.40;99.90
51950;DHT22;37974;53.218;6.640;2023-07-31T15:11:11;20.40;99.90
51950;DHT22;37974;53.218;6.640;2023-07-31T15:13:39;20.30;99.90
51950;DHT22;37974;53.218;6.640;2023-07-31T15:16:05;20.30;99.90
51950;DHT22;37974;53.218;6.640;2023-07-31T15:18:31;20.20;99.90
51950;DHT22;37974;53.218;6.640;2023-07-31T15:20:57;20.20;99.90
51950;DHT22;37974;53.218;6.640;2023-07-31T15:23:22;20.10;99.90
51950;DHT22;37974;53.218;6.640;2023-07-31T15:25:49;20.10;99.90
51950;DHT22;37974;53.218;6.640;2023-07-31T15:28:14;20.00;99.90
51950;DHT22;37974;53.218;6.640;2023-07-31T15:30:41;20.00;99.90
51950;DHT22;37974;53.218;6.640;2023-07-31T15:33:06;20.00;99.90
51950;DHT22;37974;53.218;6.640;2023-07-31T15:35:32;20.00;99.90
51950;DHT22;37974;53.218;6.640;2023-07-31T15:37:58;20.00;99.90
51950;DHT22;37974;53.218;6.640;2023-07-31T15:40:23;20.00;99.90
51950;DHT22;37974;53.218;6.640;2023-07-31T15:42:49;20.00;99.90